.
WxDataArchive / Data Records for 2014-10-02
2014-10-01 October 2014 2014-10-03

Data Records for Thursday, 02 October 2014

Time	Temp	Chill	HIndex	Humid	Dewpt	 Wind 	HiWind	WindDir	Rain 	Barom
-----	----	-----	------	-----	-----	------	------	-------	-----	-----
00:00	52.5	52.5	52.5	88	49.0	0	0	---	0.00	29.994 
00:05	52.3	52.3	52.3	88	48.9	0	0	---	0.00	29.994 
00:10	52.2	52.2	52.2	88	48.8	0	0	---	0.00	29.994 
00:15	52.2	52.2	52.2	89	49.1	0	0	---	0.00	29.992 
00:20	52.0	52.0	52.0	89	48.9	0	0	---	0.00	29.992 
00:25	52.0	52.0	52.0	89	48.9	0	0	---	0.00	29.992 
00:30	51.9	51.9	51.9	89	48.8	0	0	---	0.00	29.991 
00:35	51.9	51.9	51.9	89	48.8	0	0	---	0.00	29.991 
00:40	51.7	51.7	51.7	89	48.6	0	0	---	0.00	29.991 
00:45	51.7	51.7	51.7	90	48.9	0	0	---	0.00	29.981 
00:50	51.7	51.7	51.7	90	48.9	0	0	---	0.00	29.981 
00:55	51.7	51.7	51.7	90	48.9	0	0	---	0.00	29.981 
01:00	51.7	51.7	51.7	90	48.9	0	0	---	0.00	29.988 
01:05	51.7	51.7	51.7	90	48.9	0	0	---	0.00	29.988 
01:10	51.7	51.7	51.7	90	48.9	0	0	---	0.00	29.988 
01:15	51.7	51.7	51.7	90	48.9	0	0	---	0.00	29.991 
01:20	51.6	51.6	51.6	90	48.8	0	0	---	0.00	29.991 
01:25	51.6	51.6	51.6	90	48.8	0	0	---	0.00	29.991 
01:30	51.6	51.6	51.6	90	48.8	0	0	---	0.00	29.980 
01:35	51.4	51.4	51.4	90	48.6	0	0	---	0.00	29.980 
01:40	51.4	51.4	51.4	90	48.6	0	0	---	0.00	29.980 
01:45	51.4	51.4	51.4	90	48.6	0	0	---	0.00	29.977 
01:50	51.4	51.4	51.4	90	48.6	0	0	---	0.00	29.977 
01:55	51.4	51.4	51.4	90	48.6	0	0	---	0.00	29.977 
02:00	51.6	51.6	51.6	90	48.8	0	0	---	0.00	29.976 
02:05	51.6	51.6	51.6	89	48.5	0	0	---	0.00	29.976 
02:10	51.6	51.6	51.6	89	48.5	0	0	---	0.00	29.976 
02:15	51.6	51.6	51.6	89	48.5	0	0	---	0.00	29.974 
02:20	51.6	51.6	51.6	89	48.5	0	1	90	0.00	29.974 
02:25	51.7	51.7	51.7	89	48.6	0	1	---	0.00	29.974 
02:30	51.7	51.7	51.7	89	48.6	0	0	---	0.00	29.974 
02:35	51.7	51.7	51.7	89	48.6	0	0	---	0.00	29.974 
02:40	51.7	51.7	51.7	89	48.6	0	0	---	0.00	29.974 
02:45	51.7	51.7	51.7	89	48.6	0	0	---	0.00	29.972 
02:50	51.7	51.7	51.7	89	48.6	0	0	---	0.00	29.972 
02:55	51.7	51.7	51.7	89	48.6	0	0	---	0.00	29.972 
03:00	51.7	51.7	51.7	89	48.6	0	0	---	0.00	29.975 
03:05	51.6	51.6	51.6	89	48.5	0	0	---	0.00	29.975 
03:10	51.6	51.6	51.6	89	48.5	0	0	---	0.00	29.975 
03:15	51.4	51.4	51.4	89	48.3	0	0	---	0.00	29.979 
03:20	51.4	51.4	51.4	89	48.3	0	0	---	0.00	29.979 
03:25	51.3	51.3	51.3	89	48.2	0	0	---	0.00	29.979 
03:30	51.3	51.3	51.3	89	48.2	0	0	---	0.00	29.975 
03:35	51.3	51.3	51.3	90	48.5	0	0	---	0.00	29.975 
03:40	51.3	51.3	51.3	90	48.5	0	0	---	0.00	29.975 
03:45	51.3	51.3	51.3	90	48.5	0	0	---	0.00	29.974 
03:50	51.3	51.3	51.3	90	48.5	0	0	---	0.00	29.974 
03:55	51.4	51.4	51.4	90	48.6	0	0	---	0.00	29.974 
04:00	51.4	51.4	51.4	90	48.6	0	0	---	0.00	29.966 
04:05	51.6	51.6	51.6	90	48.8	0	0	---	0.00	29.966 
04:10	51.6	51.6	51.6	90	48.8	0	0	---	0.00	29.966 
04:15	51.6	51.6	51.6	90	48.8	0	0	---	0.00	29.959 
04:20	51.7	51.7	51.7	89	48.6	0	1	90	0.00	29.959 
04:25	51.7	51.7	51.7	89	48.6	0	0	---	0.00	29.959 
04:30	51.7	51.7	51.7	89	48.6	0	1	90	0.00	29.958 
04:35	51.7	51.7	51.7	89	48.6	0	1	90	0.00	29.958 
04:40	51.9	51.9	51.9	89	48.8	0	0	---	0.00	29.958 
04:45	51.9	51.9	51.9	89	48.8	0	1	90	0.00	29.957 
04:50	52.0	52.0	52.0	89	48.9	0	1	90	0.00	29.957 
04:55	52.0	52.0	52.0	89	48.9	0	1	90	0.00	29.957 
05:00	52.2	52.2	52.2	89	49.1	0	1	90	0.00	29.952 
05:05	52.2	52.2	52.2	89	49.1	0	0	---	0.00	29.952 
05:10	52.0	52.0	52.0	89	48.9	0	0	---	0.00	29.952 
05:15	52.0	52.0	52.0	89	48.9	0	0	---	0.00	29.952 
05:20	51.9	51.9	51.9	89	48.8	0	1	90	0.00	29.952 
05:25	51.7	51.7	51.7	89	48.6	0	0	---	0.00	29.952 
05:30	51.7	51.7	51.7	89	48.6	0	1	90	0.00	29.949 
05:35	51.6	51.6	51.6	89	48.5	0	1	90	0.00	29.949 
05:40	51.6	51.6	51.6	89	48.5	0	0	---	0.00	29.949 
05:45	51.6	51.6	51.6	89	48.5	0	1	90	0.00	29.954 
05:50	51.6	51.6	51.6	90	48.8	0	1	90	0.00	29.954 
05:55	51.6	51.6	51.6	90	48.8	0	0	---	0.00	29.954 
06:00	51.6	51.6	51.6	90	48.8	0	0	---	0.00	29.955 
06:05	51.6	51.6	51.6	90	48.8	0	1	90	0.00	29.955 
06:10	51.7	51.7	51.7	90	48.9	0	0	---	0.00	29.955 
06:15	51.9	51.9	51.9	90	49.1	0	1	90	0.00	29.960 
06:20	52.0	52.0	52.0	90	49.2	0	0	---	0.00	29.960 
06:25	52.2	52.2	52.2	90	49.4	0	1	90	0.00	29.960 
06:30	52.3	52.3	52.3	90	49.5	0	2	90	0.00	29.960 
06:35	52.5	52.5	52.5	90	49.7	0	1	90	0.00	29.960 
06:40	52.6	52.6	52.6	89	49.4	0	1	90	0.00	29.960 
06:45	52.8	52.8	52.8	89	49.6	0	1	90	0.00	29.958 
06:50	52.8	52.8	52.8	89	49.6	0	1	90	0.00	29.958 
06:55	52.9	52.9	52.9	89	49.7	0	1	90	0.00	29.958 
07:00	52.9	52.9	52.9	89	49.7	0	2	90	0.00	29.959 
07:05	53.1	53.1	53.1	89	49.9	0	1	90	0.00	29.959 
07:10	53.1	53.1	53.1	89	49.9	0	2	90	0.00	29.959 
07:15	53.1	53.1	53.1	89	49.9	0	1	90	0.00	29.965 
07:20	53.2	53.2	53.2	89	50.0	0	2	90	0.00	29.965 
07:25	53.2	53.2	53.2	89	50.0	0	2	90	0.00	29.965 
07:30	53.3	53.3	53.3	89	50.1	0	3	90	0.00	29.964 
07:35	53.5	53.5	53.5	89	50.3	0	1	90	0.00	29.964 
07:40	53.6	53.6	53.6	89	50.4	0	2	90	0.00	29.964 
07:45	53.8	53.8	53.8	89	50.6	0	1	90	0.00	29.962 
07:50	53.9	53.9	53.9	88	50.4	0	1	90	0.00	29.962 
07:55	53.9	53.9	53.9	88	50.4	0	1	90	0.00	29.962 
08:00	53.9	53.9	53.9	88	50.4	0	1	90	0.00	29.960 
08:05	54.1	54.1	54.1	88	50.6	0	1	90	0.00	29.960 
08:10	54.1	54.1	54.1	88	50.6	0	1	90	0.00	29.960 
08:15	54.2	54.2	54.2	89	51.0	0	1	135	0.00	29.965 
08:20	54.4	54.4	54.4	89	51.2	0	1	135	0.00	29.965 
08:25	54.4	54.4	54.4	89	51.2	0	0	---	0.00	29.965 
08:30	54.5	54.5	54.5	89	51.3	0	0	---	0.00	29.977 
08:35	54.7	54.7	54.7	89	51.5	0	0	---	0.00	29.977 
08:40	55.0	55.0	55.0	89	51.8	0	0	---	0.00	29.977 
08:45	55.3	55.3	55.3	89	52.1	0	1	135	0.00	29.964 
08:50	55.6	55.6	55.6	89	52.4	0	1	135	0.00	29.964 
08:55	55.9	55.9	55.9	88	52.4	0	1	135	0.00	29.964 
09:00	56.2	56.2	56.2	88	52.7	0	2	135	0.00	29.963 
09:05	56.5	56.5	56.5	88	53.0	0	1	135	0.00	29.963 
09:10	56.7	56.7	56.7	88	53.2	0	0	---	0.00	29.963 
09:15	57.0	57.0	57.0	88	53.5	0	0	---	0.00	29.967 
09:20	57.3	57.3	57.3	87	53.5	0	1	135	0.00	29.967 
09:25	57.8	57.8	57.8	87	54.0	0	1	135	0.00	29.967 
09:30	58.0	58.0	58.0	86	53.8	0	1	135	0.00	29.963 
09:35	58.3	58.3	58.3	86	54.1	0	1	135	0.00	29.963 
09:40	58.7	58.7	58.7	86	54.5	0	1	135	0.00	29.963 
09:45	59.2	59.2	59.2	85	54.7	0	1	135	0.00	29.960 
09:50	59.8	59.8	59.8	85	55.3	0	1	135	0.00	29.960 
09:55	60.4	60.4	60.4	84	55.5	0	0	---	0.00	29.960 
10:00	61.0	61.0	61.0	82	55.5	0	1	135	0.00	29.952 
10:05	61.6	61.6	61.6	81	55.7	0	1	135	0.00	29.952 
10:10	62.4	62.4	62.4	78	55.4	0	1	135	0.00	29.952 
10:15	62.9	62.9	62.9	77	55.6	0	1	135	0.00	29.943 
10:20	63.2	63.2	63.2	76	55.5	0	2	135	0.00	29.943 
10:25	63.5	63.5	63.5	75	55.4	0	1	135	0.00	29.943 
10:30	63.9	63.9	63.9	74	55.4	0	2	112	0.00	29.940 
10:35	64.0	64.0	64.0	75	55.9	0	1	112	0.00	29.940 
10:40	64.0	64.0	64.0	74	55.5	0	1	112	0.00	29.940 
10:45	64.2	64.2	64.2	74	55.7	0	1	112	0.00	29.934 
10:50	64.3	64.3	64.3	73	55.5	0	3	112	0.00	29.934 
10:55	64.3	64.3	64.3	73	55.5	0	2	112	0.00	29.934 
11:00	64.5	64.5	64.5	74	56.0	0	1	112	0.00	29.921 
11:05	64.7	64.7	64.7	74	56.2	0	0	---	0.00	29.921 
11:10	64.8	64.8	64.8	74	56.3	0	1	112	0.00	29.921 
11:15	65.2	65.2	65.2	74	56.7	0	1	112	0.00	29.914 
11:20	65.5	65.5	65.5	74	57.0	0	1	112	0.00	29.914 
11:25	65.8	65.8	65.8	73	56.9	0	1	112	0.00	29.914 
11:30	66.0	66.0	66.0	73	57.1	0	2	112	0.00	29.914 
11:35	66.3	66.3	66.3	72	57.0	0	1	112	0.00	29.914 
11:40	66.6	66.6	66.6	72	57.3	0	1	112	0.00	29.914 
11:45	67.1	67.1	67.1	72	57.8	0	1	112	0.00	29.910 
11:50	67.4	67.4	67.4	71	57.7	0	1	112	0.00	29.910 
11:55	67.8	67.8	67.8	71	58.0	0	0	---	0.00	29.910 
12:00	67.9	67.9	67.9	70	57.7	0	0	---	0.00	29.911 
12:05	68.1	68.1	68.1	70	57.9	0	0	---	0.00	29.911 
12:10	68.3	68.3	68.3	69	57.7	0	1	112	0.00	29.911 
12:15	68.3	68.3	68.3	70	58.1	0	0	---	0.00	29.921 
12:20	68.3	68.3	68.3	72	58.9	0	0	---	0.00	29.921 
12:25	68.1	68.1	68.1	71	58.3	0	1	112	0.00	29.921 
12:30	68.1	68.1	68.1	72	58.7	0	0	---	0.00	29.919 
12:35	67.9	67.9	67.9	75	59.7	0	0	---	0.00	29.919 
12:40	67.6	67.6	67.6	75	59.4	0	0	---	0.00	29.919 
12:45	67.4	67.4	67.4	76	59.6	0	0	---	0.00	29.919 
12:50	67.3	67.3	67.3	76	59.5	0	0	---	0.00	29.919 
12:55	67.3	67.3	67.3	77	59.8	0	0	---	0.00	29.919 
13:00	67.3	67.3	67.3	78	60.2	0	0	---	0.00	29.924 
13:05	67.1	67.1	67.1	79	60.4	0	0	---	0.00	29.924 
13:10	67.1	67.1	67.1	79	60.4	0	1	112	0.00	29.924 
13:15	67.1	67.1	67.1	78	60.0	0	0	---	0.00	29.909 
13:20	67.3	67.3	67.3	79	60.6	0	0	---	0.00	29.909 
13:25	67.3	67.3	67.3	79	60.6	0	1	112	0.00	29.909 
13:30	67.3	67.3	67.3	80	60.9	0	0	---	0.01	29.918 
13:35	66.9	66.9	66.9	82	61.2	0	0	---	0.01	29.918 
13:40	66.4	66.4	66.4	84	61.4	0	1	112	0.01	29.918 
13:45	66.0	66.0	66.0	86	61.7	1	2	112	0.00	29.892 
13:50	65.6	65.6	65.6	86	61.3	1	3	112	0.00	29.892 
13:55	65.6	65.6	65.6	86	61.3	0	2	90	0.00	29.892 
14:00	65.8	65.8	65.8	86	61.5	0	2	90	0.00	29.884 
14:05	66.3	66.3	66.3	85	61.6	1	3	90	0.00	29.884 
14:10	66.8	66.8	66.8	84	61.8	1	3	90	0.00	29.884 
14:15	67.1	67.1	67.1	83	61.8	1	3	90	0.00	29.870 
14:20	67.6	67.6	67.6	82	61.9	0	3	90	0.00	29.870 
14:25	68.1	68.1	68.1	81	62.0	0	3	68	0.00	29.870 
14:30	68.4	68.4	68.4	80	62.0	0	2	68	0.00	29.861 
14:35	68.9	68.9	68.9	80	62.5	0	2	68	0.00	29.861 
14:40	69.3	69.3	69.3	78	62.1	0	3	68	0.00	29.861 
14:45	69.8	69.8	69.8	76	61.9	1	4	112	0.00	29.858 
14:50	70.3	70.3	70.3	77	62.7	0	3	90	0.00	29.858 
14:55	70.8	70.8	70.8	77	63.2	0	1	90	0.00	29.858 
15:00	71.3	71.3	71.3	75	63.0	0	2	90	0.00	29.855 
15:05	72.1	72.1	72.1	73	63.0	0	4	90	0.00	29.855 
15:10	72.8	72.8	72.8	72	63.2	0	2	90	0.00	29.855 
15:15	73.5	73.5	73.5	71	63.5	0	2	90	0.00	29.845 
15:20	74.0	74.0	74.0	70	63.6	0	1	45	0.00	29.845 
15:25	74.6	74.6	74.6	70	64.2	0	1	45	0.00	29.845 
15:30	74.9	74.9	74.9	68	63.6	0	2	45	0.00	29.845 
15:35	75.3	75.3	77.1	68	64.0	0	1	45	0.00	29.845 
15:40	75.4	75.4	77.3	67	63.7	0	1	45	0.00	29.845 
15:45	75.4	75.4	77.2	68	64.1	0	1	45	0.00	29.839 
15:50	75.6	75.6	77.4	67	63.9	0	1	45	0.00	29.839 
15:55	76.0	76.0	77.8	66	63.8	0	0	---	0.00	29.839 
16:00	76.3	76.3	78.1	65	63.6	0	1	45	0.00	29.830 
16:05	77.2	77.2	79.0	62	63.2	0	1	45	0.00	29.830 
16:10	78.1	78.1	79.8	60	63.1	0	1	45	0.00	29.830 
16:15	78.6	78.6	80.1	58	62.6	0	3	45	0.00	29.818 
16:20	79.0	79.0	80.5	58	62.9	0	4	45	0.00	29.818 
16:25	79.2	79.2	80.7	57	62.6	0	1	22	0.00	29.818 
16:30	79.2	79.2	80.7	57	62.6	0	2	22	0.00	29.806 
16:35	79.0	79.0	80.5	58	62.9	0	1	0	0.00	29.806 
16:40	78.6	78.6	80.2	59	63.1	0	1	0	0.00	29.806 
16:45	78.1	78.1	79.7	59	62.6	0	2	0	0.00	29.807 
16:50	77.9	77.9	79.6	61	63.3	0	1	0	0.00	29.807 
16:55	77.0	77.0	78.8	68	65.6	1	5	270	0.02	29.807 
17:00	74.9	74.9	74.9	77	67.2	0	3	292	0.03	29.823 
17:05	73.7	73.7	73.7	81	67.5	0	2	292	0.00	29.823 
17:10	72.8	72.8	72.8	84	67.7	0	1	292	0.00	29.823 
17:15	72.3	72.3	72.3	85	67.5	0	0	---	0.00	29.823 
17:20	72.0	72.0	72.0	87	67.9	0	1	292	0.00	29.823 
17:25	71.6	71.6	71.6	87	67.5	0	1	292	0.00	29.823 
17:30	71.5	71.5	71.5	88	67.7	0	0	---	0.00	29.826 
17:35	71.3	71.3	71.3	88	67.6	0	1	292	0.00	29.826 
17:40	71.1	71.1	71.1	89	67.7	0	1	292	0.00	29.826 
17:45	70.9	70.9	70.9	89	67.5	0	1	292	0.00	29.825 
17:50	70.9	70.9	70.9	89	67.5	0	0	---	0.00	29.825 
17:55	70.9	70.9	70.9	90	67.8	0	0	---	0.00	29.825 
18:00	70.9	70.9	70.9	90	67.8	0	0	---	0.00	29.827 
18:05	70.9	70.9	70.9	90	67.8	0	0	---	0.00	29.827 
18:10	70.8	70.8	70.8	90	67.7	0	0	---	0.00	29.827 
18:15	70.8	70.8	70.8	91	68.0	0	0	---	0.00	29.823 
18:20	70.8	70.8	70.8	91	68.0	0	0	---	0.00	29.823 
18:25	70.6	70.6	70.6	91	67.8	0	0	---	0.00	29.823 
18:30	70.6	70.6	70.6	91	67.8	0	0	---	0.00	29.823 
18:35	70.6	70.6	70.6	91	67.8	0	0	---	0.00	29.823 
18:40	70.4	70.4	70.4	91	67.6	0	0	---	0.00	29.823 
18:45	70.4	70.4	70.4	92	68.0	0	0	---	0.00	29.826 
18:50	70.3	70.3	70.3	92	67.9	0	1	292	0.00	29.826 
18:55	70.1	70.1	70.1	92	67.7	0	1	292	0.00	29.826 
19:00	69.9	69.9	69.9	92	67.5	0	0	---	0.00	29.830 
19:05	69.9	69.9	69.9	92	67.5	0	0	---	0.00	29.830 
19:10	69.8	69.8	69.8	92	67.4	0	0	---	0.00	29.830 
19:15	69.8	69.8	69.8	92	67.4	0	1	292	0.00	29.825 
19:20	69.6	69.6	69.6	92	67.2	0	0	---	0.00	29.825 
19:25	69.6	69.6	69.6	92	67.2	0	0	---	0.00	29.825 
19:30	69.6	69.6	69.6	92	67.2	0	0	---	0.00	29.822 
19:35	69.4	69.4	69.4	92	67.0	0	0	---	0.00	29.822 
19:40	69.3	69.3	69.3	92	66.9	0	0	---	0.00	29.822 
19:45	69.3	69.3	69.3	92	66.9	0	0	---	0.00	29.811 
19:50	69.1	69.1	69.1	93	67.0	0	0	---	0.00	29.811 
19:55	68.9	68.9	68.9	93	66.8	0	0	---	0.00	29.811 
20:00	68.8	68.8	68.8	93	66.7	0	0	---	0.00	29.809 
20:05	68.6	68.6	68.6	93	66.5	0	0	---	0.00	29.809 
20:10	68.6	68.6	68.6	93	66.5	0	0	---	0.00	29.809 
20:15	68.8	68.8	68.8	93	66.7	0	1	292	0.00	29.805 
20:20	68.8	68.8	68.8	93	66.7	0	0	---	0.00	29.805 
20:25	68.6	68.6	68.6	94	66.8	0	0	---	0.00	29.805 
20:30	68.6	68.6	68.6	94	66.8	0	0	---	0.00	29.799 
20:35	68.6	68.6	68.6	94	66.8	0	1	292	0.00	29.799 
20:40	68.6	68.6	68.6	94	66.8	0	0	---	0.00	29.799 
20:45	68.6	68.6	68.6	94	66.8	0	0	---	0.00	29.794 
20:50	68.4	68.4	68.4	94	66.6	0	0	---	0.00	29.794 
20:55	68.4	68.4	68.4	94	66.6	0	0	---	0.00	29.794 
21:00	68.4	68.4	68.4	94	66.6	0	0	---	0.00	29.788 
21:05	68.4	68.4	68.4	94	66.6	0	0	---	0.00	29.788 
21:10	68.3	68.3	68.3	94	66.5	0	1	292	0.00	29.788 
21:15	68.3	68.3	68.3	94	66.5	0	2	292	0.00	29.774 
21:20	68.3	68.3	68.3	94	66.5	0	1	292	0.00	29.774 
21:25	68.1	68.1	68.1	94	66.3	1	3	45	0.00	29.774 
21:30	68.1	68.1	68.1	94	66.3	0	2	45	0.00	29.771 
21:35	67.9	67.9	67.9	94	66.1	0	2	45	0.00	29.771 
21:40	67.9	67.9	67.9	94	66.1	0	2	45	0.00	29.771 
21:45	67.8	67.8	67.8	94	66.0	0	2	45	0.00	29.761 
21:50	67.8	67.8	67.8	94	66.0	1	2	45	0.00	29.761 
21:55	67.8	67.8	67.8	94	66.0	0	4	45	0.00	29.761 
22:00	67.6	67.6	67.6	93	65.5	0	1	45	0.00	29.771 
22:05	67.6	67.6	67.6	93	65.5	0	2	45	0.00	29.771 
22:10	67.4	67.4	67.4	93	65.3	0	1	45	0.00	29.771 
22:15	67.4	67.4	67.4	93	65.3	0	2	45	0.00	29.760 
22:20	67.3	67.3	67.3	93	65.2	0	2	45	0.00	29.760 
22:25	67.3	67.3	67.3	93	65.2	0	4	45	0.00	29.760 
22:30	67.3	67.3	67.3	93	65.2	0	3	68	0.00	29.762 
22:35	67.1	67.1	67.1	93	65.0	0	2	22	0.00	29.762 
22:40	67.1	67.1	67.1	93	65.0	0	1	22	0.00	29.762 
22:45	67.1	67.1	67.1	93	65.0	0	2	22	0.00	29.758 
22:50	67.1	67.1	67.1	93	65.0	0	1	22	0.00	29.758 
22:55	67.1	67.1	67.1	93	65.0	0	2	22	0.00	29.758 
23:00	66.9	66.9	66.9	93	64.8	0	0	---	0.00	29.755 
23:05	66.9	66.9	66.9	93	64.8	0	1	22	0.00	29.755 
23:10	66.9	66.9	66.9	93	64.8	0	2	22	0.00	29.755 
23:15	66.9	66.9	66.9	93	64.8	0	0	---	0.00	29.746 
23:20	66.9	66.9	66.9	93	64.8	0	0	---	0.00	29.746 
23:25	66.8	66.8	66.8	93	64.7	0	1	22	0.00	29.746 
23:30	66.8	66.8	66.8	93	64.7	0	1	22	0.00	29.737 
23:35	66.6	66.6	66.6	93	64.5	0	1	22	0.00	29.737 
23:40	66.4	66.4	66.4	93	64.3	0	1	22	0.00	29.737 
23:45	66.4	66.4	66.4	93	64.3	0	1	22	0.00	29.734 
23:50	66.4	66.4	66.4	92	64.0	0	2	22	0.00	29.734 
23:55	66.4	66.4	66.4	92	64.0	0	2	22	0.00	29.734 

CoCoRaHS
IN-AL-39
A2 Web Hosting
Creative Commons License
GoDaddy
search engine by freefind advanced

loaded 2018-11-16 23:25:27 • last modified 2010-11-18 10:43:29
Privacy PolicyDisclaimer
• wx.awcolley.com is powered by PmWiki v.2002016 •
• all content (unless otherwise noted) © 2018 A W Colley